sensor_id;sensor_type;location;lat;lon;timestamp;pressure;altitude;pressure_sealevel;temperature;humidity
66887;BME280;53798;51.680;5.976;2022-09-12T00:01:14;101669.28;;;12.96;86.53
66887;BME280;53798;51.680;5.976;2022-09-12T00:03:42;101667.56;;;12.94;86.53
66887;BME280;53798;51.680;5.976;2022-09-12T00:06:19;101655.22;;;12.93;86.58
66887;BME280;53798;51.680;5.976;2022-09-12T00:08:50;101657.13;;;12.87;86.78
66887;BME280;53798;51.680;5.976;2022-09-12T00:11:20;101651.97;;;12.83;86.61
66887;BME280;53798;51.680;5.976;2022-09-12T00:13:49;101650.38;;;12.77;86.73
66887;BME280;53798;51.680;5.976;2022-09-12T00:16:19;101660.09;;;12.75;86.82
66887;BME280;53798;51.680;5.976;2022-09-12T00:18:49;101646.09;;;12.71;87.01
66887;BME280;53798;51.680;5.976;2022-09-12T00:21:17;101650.59;;;12.68;86.97
66887;BME280;53798;51.680;5.976;2022-09-12T00:23:45;101648.91;;;12.65;87.08
66887;BME280;53798;51.680;5.976;2022-09-12T00:26:16;101648.94;;;12.64;87.22
66887;BME280;53798;51.680;5.976;2022-09-12T00:28:44;101645.50;;;12.60;87.34
66887;BME280;53798;51.680;5.976;2022-09-12T00:31:20;101647.38;;;12.56;87.41
66887;BME280;53798;51.680;5.976;2022-09-12T00:33:50;101642.25;;;12.49;87.17
66887;BME280;53798;51.680;5.976;2022-09-12T00:36:21;101633.63;;;12.42;87.37
66887;BME280;53798;51.680;5.976;2022-09-12T00:38:50;101639.00;;;12.39;87.76
66887;BME280;53798;51.680;5.976;2022-09-12T00:41:28;101632.84;;;12.38;88.14
66887;BME280;53798;51.680;5.976;2022-09-12T00:49:32;101632.16;;;12.30;88.18
66887;BME280;53798;51.680;5.976;2022-09-12T00:52:12;101636.59;;;12.30;88.39
66887;BME280;53798;51.680;5.976;2022-09-12T00:55:07;101630.41;;;12.29;88.14
66887;BME280;53798;51.680;5.976;2022-09-12T00:57:46;101626.91;;;12.29;88.27
66887;BME280;53798;51.680;5.976;2022-09-12T01:00:18;101627.00;;;12.25;88.09
66887;BME280;53798;51.680;5.976;2022-09-12T01:03:02;101620.84;;;12.25;88.38
66887;BME280;53798;51.680;5.976;2022-09-12T01:05:36;101624.41;;;12.24;88.37
66887;BME280;53798;51.680;5.976;2022-09-12T01:08:06;101624.47;;;12.21;88.26
66887;BME280;53798;51.680;5.976;2022-09-12T01:10:34;101613.88;;;12.21;88.74
66887;BME280;53798;51.680;5.976;2022-09-12T01:13:07;101613.09;;;12.17;88.45
66887;BME280;53798;51.680;5.976;2022-09-12T01:15:39;101607.84;;;12.16;88.33
66887;BME280;53798;51.680;5.976;2022-09-12T01:18:24;101606.06;;;12.16;88.54
66887;BME280;53798;51.680;5.976;2022-09-12T01:21:04;101600.06;;;12.09;88.39
66887;BME280;53798;51.680;5.976;2022-09-12T01:27:18;101591.69;;;11.90;89.01
66887;BME280;53798;51.680;5.976;2022-09-12T01:35:50;101584.63;;;11.91;89.52
66887;BME280;53798;51.680;5.976;2022-09-12T01:38:36;101585.38;;;11.96;90.02
66887;BME280;53798;51.680;5.976;2022-09-12T01:41:43;101588.03;;;11.98;90.18
66887;BME280;53798;51.680;5.976;2022-09-12T01:44:52;101586.25;;;11.96;89.78
66887;BME280;53798;51.680;5.976;2022-09-12T01:50:58;101582.81;;;11.93;89.74
66887;BME280;53798;51.680;5.976;2022-09-12T01:53:40;101583.78;;;11.90;89.63
66887;BME280;53798;51.680;5.976;2022-09-12T01:56:19;101582.03;;;11.89;89.33
66887;BME280;53798;51.680;5.976;2022-09-12T01:59:04;101573.28;;;11.86;89.46
66887;BME280;53798;51.680;5.976;2022-09-12T02:01:45;101574.13;;;11.88;89.50
66887;BME280;53798;51.680;5.976;2022-09-12T02:04:27;101585.53;;;11.90;89.46
66887;BME280;53798;51.680;5.976;2022-09-12T02:07:17;101572.25;;;11.93;89.49
66887;BME280;53798;51.680;5.976;2022-09-12T02:10:02;101581.03;;;11.95;89.41
66887;BME280;53798;51.680;5.976;2022-09-12T02:12:40;101573.03;;;11.96;89.39
66887;BME280;53798;51.680;5.976;2022-09-12T02:15:16;101565.13;;;11.96;89.45
66887;BME280;53798;51.680;5.976;2022-09-12T02:17:49;101565.13;;;11.96;89.24
66887;BME280;53798;51.680;5.976;2022-09-12T02:20:23;101563.31;;;11.97;89.67
66887;BME280;53798;51.680;5.976;2022-09-12T02:23:22;101560.69;;;11.97;89.57
66887;BME280;53798;51.680;5.976;2022-09-12T02:25:58;101562.53;;;11.93;89.55
66887;BME280;53798;51.680;5.976;2022-09-12T02:28:37;101554.66;;;11.92;89.68
66887;BME280;53798;51.680;5.976;2022-09-12T02:34:16;101545.91;;;11.90;90.11
66887;BME280;53798;51.680;5.976;2022-09-12T02:37:02;101541.34;;;11.96;90.41
66887;BME280;53798;51.680;5.976;2022-09-12T02:39:31;101538.66;;;12.00;90.49
66887;BME280;53798;51.680;5.976;2022-09-12T02:42:00;101543.00;;;12.02;90.16
66887;BME280;53798;51.680;5.976;2022-09-12T02:44:29;101559.69;;;12.04;90.62
66887;BME280;53798;51.680;5.976;2022-09-12T02:50:26;101544.50;;;12.11;90.81
66887;BME280;53798;51.680;5.976;2022-09-12T02:52:53;101541.78;;;12.16;90.85
66887;BME280;53798;51.680;5.976;2022-09-12T02:55:26;101540.78;;;12.20;91.16
66887;BME280;53798;51.680;5.976;2022-09-12T02:57:56;101539.91;;;12.19;90.97
66887;BME280;53798;51.680;5.976;2022-09-12T03:00:23;101548.72;;;12.20;90.91
66887;BME280;53798;51.680;5.976;2022-09-12T03:03:07;101554.88;;;12.20;91.09
66887;BME280;53798;51.680;5.976;2022-09-12T03:05:56;101548.66;;;12.21;90.90
66887;BME280;53798;51.680;5.976;2022-09-12T03:09:06;101546.00;;;12.21;91.08
66887;BME280;53798;51.680;5.976;2022-09-12T03:14:42;101535.50;;;12.20;90.83
66887;BME280;53798;51.680;5.976;2022-09-12T03:17:29;101540.78;;;12.20;90.93
66887;BME280;53798;51.680;5.976;2022-09-12T03:20:21;101539.03;;;12.19;90.85
66887;BME280;53798;51.680;5.976;2022-09-12T03:23:24;101527.63;;;12.17;91.09
66887;BME280;53798;51.680;5.976;2022-09-12T03:26:02;101533.81;;;12.17;90.86
66887;BME280;53798;51.680;5.976;2022-09-12T03:28:38;101535.59;;;12.15;90.85
66887;BME280;53798;51.680;5.976;2022-09-12T03:31:13;101529.47;;;12.15;90.68
66887;BME280;53798;51.680;5.976;2022-09-12T03:33:44;101526.91;;;12.11;90.78
66887;BME280;53798;51.680;5.976;2022-09-12T03:36:24;101525.09;;;12.12;90.83
66887;BME280;53798;51.680;5.976;2022-09-12T03:38:54;101522.56;;;12.09;90.81
66887;BME280;53798;51.680;5.976;2022-09-12T03:41:21;101521.66;;;12.10;90.86
66887;BME280;53798;51.680;5.976;2022-09-12T03:43:48;101522.56;;;12.09;90.81
66887;BME280;53798;51.680;5.976;2022-09-12T03:46:15;101519.91;;;12.09;90.96
66887;BME280;53798;51.680;5.976;2022-09-12T03:48:43;101512.84;;;12.09;91.03
66887;BME280;53798;51.680;5.976;2022-09-12T03:51:10;101514.53;;;12.12;91.16
66887;BME280;53798;51.680;5.976;2022-09-12T03:53:38;101514.50;;;12.14;91.22
66887;BME280;53798;51.680;5.976;2022-09-12T03:56:07;101509.19;;;12.15;91.21
66887;BME280;53798;51.680;5.976;2022-09-12T03:58:36;101505.69;;;12.15;91.33
66887;BME280;53798;51.680;5.976;2022-09-12T04:01:12;101510.91;;;12.16;91.34
66887;BME280;53798;51.680;5.976;2022-09-12T04:03:43;101509.97;;;12.19;91.68
66887;BME280;53798;51.680;5.976;2022-09-12T04:06:13;101505.50;;;12.21;91.46
66887;BME280;53798;51.680;5.976;2022-09-12T04:08:47;101495.78;;;12.23;91.74
66887;BME280;53798;51.680;5.976;2022-09-12T04:11:17;101497.50;;;12.24;91.72
66887;BME280;53798;51.680;5.976;2022-09-12T04:13:46;101502.75;;;12.25;91.75
66887;BME280;53798;51.680;5.976;2022-09-12T04:16:15;101504.44;;;12.28;91.66
66887;BME280;53798;51.680;5.976;2022-09-12T04:18:43;101504.41;;;12.30;91.63
66887;BME280;53798;51.680;5.976;2022-09-12T04:21:15;101502.63;;;12.30;91.78
66887;BME280;53798;51.680;5.976;2022-09-12T04:23:44;101503.56;;;12.27;91.58
66887;BME280;53798;51.680;5.976;2022-09-12T04:26:12;101493.00;;;12.27;91.65
66887;BME280;53798;51.680;5.976;2022-09-12T04:28:41;101498.22;;;12.31;91.70
66887;BME280;53798;51.680;5.976;2022-09-12T04:31:12;101483.25;;;12.30;91.76
66887;BME280;53798;51.680;5.976;2022-09-12T04:33:43;101487.59;;;12.32;91.84
66887;BME280;53798;51.680;5.976;2022-09-12T04:36:16;101492.94;;;12.31;91.77
66887;BME280;53798;51.680;5.976;2022-09-12T04:38:44;101484.06;;;12.32;91.93
66887;BME280;53798;51.680;5.976;2022-09-12T04:41:19;101484.06;;;12.32;91.87
66887;BME280;53798;51.680;5.976;2022-09-12T04:43:54;101487.59;;;12.32;91.89
66887;BME280;53798;51.680;5.976;2022-09-12T04:46:30;101491.06;;;12.34;92.02
66887;BME280;53798;51.680;5.976;2022-09-12T04:49:04;101491.84;;;12.36;91.92
66887;BME280;53798;51.680;5.976;2022-09-12T04:51:34;101483.06;;;12.36;91.93
66887;BME280;53798;51.680;5.976;2022-09-12T04:54:11;101480.31;;;12.40;91.76
66887;BME280;53798;51.680;5.976;2022-09-12T04:56:43;101486.44;;;12.42;91.68
66887;BME280;53798;51.680;5.976;2022-09-12T04:59:15;101480.19;;;12.45;91.55
66887;BME280;53798;51.680;5.976;2022-09-12T05:01:43;101484.50;;;12.48;91.68
66887;BME280;53798;51.680;5.976;2022-09-12T05:04:37;101484.47;;;12.49;91.68
66887;BME280;53798;51.680;5.976;2022-09-12T05:07:08;101487.81;;;12.56;91.69
66887;BME280;53798;51.680;5.976;2022-09-12T05:09:35;101480.69;;;12.58;91.67
66887;BME280;53798;51.680;5.976;2022-09-12T05:12:02;101480.66;;;12.60;91.68
66887;BME280;53798;51.680;5.976;2022-09-12T05:14:32;101485.00;;;12.62;91.76
66887;BME280;53798;51.680;5.976;2022-09-12T05:17:00;101485.75;;;12.66;91.75
66887;BME280;53798;51.680;5.976;2022-09-12T05:19:29;101490.97;;;12.69;91.70
66887;BME280;53798;51.680;5.976;2022-09-12T05:21:58;101494.41;;;12.72;91.73
66887;BME280;53798;51.680;5.976;2022-09-12T05:24:29;101491.63;;;12.77;91.82
66887;BME280;53798;51.680;5.976;2022-09-12T05:26:57;101487.09;;;12.81;91.86
66887;BME280;53798;51.680;5.976;2022-09-12T05:29:25;101489.59;;;12.85;92.00
66887;BME280;53798;51.680;5.976;2022-09-12T05:31:53;101493.03;;;12.89;91.96
66887;BME280;53798;51.680;5.976;2022-09-12T05:34:21;101497.25;;;12.96;91.90
66887;BME280;53798;51.680;5.976;2022-09-12T05:36:48;101490.84;;;13.03;91.82
66887;BME280;53798;51.680;5.976;2022-09-12T05:39:15;101488.97;;;13.07;91.93
66887;BME280;53798;51.680;5.976;2022-09-12T05:41:43;101484.44;;;13.11;92.04
66887;BME280;53798;51.680;5.976;2022-09-12T05:44:11;101487.00;;;13.14;91.98
66887;BME280;53798;51.680;5.976;2022-09-12T05:46:41;101496.53;;;13.19;92.02
66887;BME280;53798;51.680;5.976;2022-09-12T05:49:13;101498.22;;;13.22;91.97
66887;BME280;53798;51.680;5.976;2022-09-12T05:51:43;101490.19;;;13.25;91.83
66887;BME280;53798;51.680;5.976;2022-09-12T05:54:15;101491.81;;;13.29;91.73
66887;BME280;53798;51.680;5.976;2022-09-12T05:56:45;101493.53;;;13.30;91.94
66887;BME280;53798;51.680;5.976;2022-09-12T05:59:19;101496.16;;;13.32;91.59
66887;BME280;53798;51.680;5.976;2022-09-12T06:01:47;101495.19;;;13.34;91.54
66887;BME280;53798;51.680;5.976;2022-09-12T06:04:15;101499.47;;;13.39;91.46
66887;BME280;53798;51.680;5.976;2022-09-12T06:06:44;101510.88;;;13.42;91.30
66887;BME280;53798;51.680;5.976;2022-09-12T06:09:13;101506.38;;;13.44;91.48
66887;BME280;53798;51.680;5.976;2022-09-12T06:11:43;101505.31;;;13.50;91.34
66887;BME280;53798;51.680;5.976;2022-09-12T06:14:14;101502.59;;;13.53;91.26
66887;BME280;53798;51.680;5.976;2022-09-12T06:16:42;101506.00;;;13.57;91.31
66887;BME280;53798;51.680;5.976;2022-09-12T06:19:18;101501.38;;;13.63;91.39
66887;BME280;53798;51.680;5.976;2022-09-12T06:21:47;101503.00;;;13.68;91.27
66887;BME280;53798;51.680;5.976;2022-09-12T06:24:16;101496.66;;;13.73;91.35
66887;BME280;53798;51.680;5.976;2022-09-12T06:26:44;101501.81;;;13.76;91.24
66887;BME280;53798;51.680;5.976;2022-09-12T06:29:13;101499.09;;;13.79;91.35
66887;BME280;53798;51.680;5.976;2022-09-12T06:31:42;101503.47;;;13.80;91.33
66887;BME280;53798;51.680;5.976;2022-09-12T06:34:11;101496.22;;;13.86;91.21
66887;BME280;53798;51.680;5.976;2022-09-12T06:36:43;101504.00;;;13.90;91.34
66887;BME280;53798;51.680;5.976;2022-09-12T06:39:16;101502.94;;;13.96;91.04
66887;BME280;53798;51.680;5.976;2022-09-12T06:41:45;101501.16;;;13.96;91.01
66887;BME280;53798;51.680;5.976;2022-09-12T06:44:16;101502.78;;;14.01;91.04
66887;BME280;53798;51.680;5.976;2022-09-12T06:46:45;101498.38;;;14.01;90.86
66887;BME280;53798;51.680;5.976;2022-09-12T06:49:13;101503.53;;;14.04;91.02
66887;BME280;53798;51.680;5.976;2022-09-12T06:51:40;101497.31;;;14.05;90.97
66887;BME280;53798;51.680;5.976;2022-09-12T06:54:12;101501.69;;;14.06;90.76
66887;BME280;53798;51.680;5.976;2022-09-12T06:56:41;101490.16;;;14.09;90.96
66887;BME280;53798;51.680;5.976;2022-09-12T06:59:09;101491.84;;;14.10;90.83
66887;BME280;53798;51.680;5.976;2022-09-12T07:01:36;101484.88;;;14.07;90.77
66887;BME280;53798;51.680;5.976;2022-09-12T07:04:04;101492.94;;;14.04;90.66
66887;BME280;53798;51.680;5.976;2022-09-12T07:06:39;101488.59;;;14.02;90.59
66887;BME280;53798;51.680;5.976;2022-09-12T07:09:11;101491.41;;;13.97;90.53
66887;BME280;53798;51.680;5.976;2022-09-12T07:11:43;101484.50;;;13.93;90.58
66887;BME280;53798;51.680;5.976;2022-09-12T07:14:13;101488.09;;;13.90;90.66
66887;BME280;53798;51.680;5.976;2022-09-12T07:16:41;101493.47;;;13.89;90.84
66887;BME280;53798;51.680;5.976;2022-09-12T07:19:10;101495.19;;;13.90;90.76
66887;BME280;53798;51.680;5.976;2022-09-12T07:21:37;101494.88;;;13.99;90.75
66887;BME280;53798;51.680;5.976;2022-09-12T07:24:08;101491.66;;;14.16;90.52
66887;BME280;53798;51.680;5.976;2022-09-12T07:26:37;101498.03;;;14.36;90.61
66887;BME280;53798;51.680;5.976;2022-09-12T07:29:06;101496.38;;;14.57;90.52
66887;BME280;53798;51.680;5.976;2022-09-12T07:31:58;101491.94;;;14.83;89.77
66887;BME280;53798;51.680;5.976;2022-09-12T07:34:27;101489.41;;;15.03;90.06
66887;BME280;53798;51.680;5.976;2022-09-12T07:36:54;101495.75;;;15.21;89.61
66887;BME280;53798;51.680;5.976;2022-09-12T07:39:21;101491.50;;;15.40;89.16
66887;BME280;53798;51.680;5.976;2022-09-12T07:41:49;101483.97;;;15.51;89.06
66887;BME280;53798;51.680;5.976;2022-09-12T07:44:17;101481.81;;;15.61;88.59
66887;BME280;53798;51.680;5.976;2022-09-12T07:46:44;101492.59;;;15.78;88.13
66887;BME280;53798;51.680;5.976;2022-09-12T07:49:11;101484.88;;;15.94;87.61
66887;BME280;53798;51.680;5.976;2022-09-12T07:51:39;101483.41;;;16.08;87.35
66887;BME280;53798;51.680;5.976;2022-09-12T07:54:08;101474.47;;;16.29;87.22
66887;BME280;53798;51.680;5.976;2022-09-12T07:56:35;101472.88;;;16.46;86.52
66887;BME280;53798;51.680;5.976;2022-09-12T07:59:06;101481.03;;;16.62;85.83
66887;BME280;53798;51.680;5.976;2022-09-12T08:01:34;101482.25;;;16.74;85.26
66887;BME280;53798;51.680;5.976;2022-09-12T08:04:01;101473.84;;;16.83;84.66
66887;BME280;53798;51.680;5.976;2022-09-12T08:06:30;101480.28;;;16.98;84.27
66887;BME280;53798;51.680;5.976;2022-09-12T08:09:03;101479.63;;;17.12;83.51
66887;BME280;53798;51.680;5.976;2022-09-12T08:11:31;101485.06;;;17.28;82.92
66887;BME280;53798;51.680;5.976;2022-09-12T08:13:58;101487.16;;;17.41;82.57
66887;BME280;53798;51.680;5.976;2022-09-12T08:16:29;101497.22;;;17.53;82.34
66887;BME280;53798;51.680;5.976;2022-09-12T08:18:59;101493.06;;;17.65;81.15
66887;BME280;53798;51.680;5.976;2022-09-12T08:21:30;101489.94;;;17.74;80.91
66887;BME280;53798;51.680;5.976;2022-09-12T08:24:03;101491.91;;;17.88;80.83
66887;BME280;53798;51.680;5.976;2022-09-12T08:26:33;101481.44;;;18.03;79.67
66887;BME280;53798;51.680;5.976;2022-09-12T08:29:00;101487.78;;;18.18;80.07
66887;BME280;53798;51.680;5.976;2022-09-12T08:31:28;101485.22;;;18.32;79.65
66887;BME280;53798;51.680;5.976;2022-09-12T08:34:05;101498.56;;;18.50;79.59
66887;BME280;53798;51.680;5.976;2022-09-12T08:36:33;101502.28;;;18.63;77.82
66887;BME280;53798;51.680;5.976;2022-09-12T08:39:04;101492.84;;;18.73;77.06
66887;BME280;53798;51.680;5.976;2022-09-12T08:41:55;101495.19;;;18.80;76.82
66887;BME280;53798;51.680;5.976;2022-09-12T08:47:44;101496.88;;;18.98;77.16
66887;BME280;53798;51.680;5.976;2022-09-12T08:50:18;101490.41;;;19.02;76.55
66887;BME280;53798;51.680;5.976;2022-09-12T08:55:44;101493.53;;;19.11;75.63
66887;BME280;53798;51.680;5.976;2022-09-12T08:58:23;101494.22;;;19.14;75.20
66887;BME280;53798;51.680;5.976;2022-09-12T09:12:41;101479.66;;;19.66;73.49
66887;BME280;53798;51.680;5.976;2022-09-12T09:18:21;101478.81;;;19.96;73.33
66887;BME280;53798;51.680;5.976;2022-09-12T09:21:21;101474.34;;;20.11;73.05
66887;BME280;53798;51.680;5.976;2022-09-12T09:24:05;101482.59;;;20.23;71.29
66887;BME280;53798;51.680;5.976;2022-09-12T09:26:52;101485.47;;;20.34;71.78
66887;BME280;53798;51.680;5.976;2022-09-12T09:29:35;101476.69;;;20.46;71.82
66887;BME280;53798;51.680;5.976;2022-09-12T09:32:33;101478.50;;;20.60;70.82
66887;BME280;53798;51.680;5.976;2022-09-12T09:35:26;101461.94;;;20.68;70.25
66887;BME280;53798;51.680;5.976;2022-09-12T09:38:22;101462.72;;;20.85;69.49
66887;BME280;53798;51.680;5.976;2022-09-12T09:41:34;101459.13;;;20.99;69.46
66887;BME280;53798;51.680;5.976;2022-09-12T09:44:05;101459.09;;;21.13;69.53
66887;BME280;53798;51.680;5.976;2022-09-12T09:46:34;101448.31;;;21.28;69.05
66887;BME280;53798;51.680;5.976;2022-09-12T09:49:03;101456.44;;;21.40;68.35
66887;BME280;53798;51.680;5.976;2022-09-12T09:51:35;101449.25;;;21.54;68.66
66887;BME280;53798;51.680;5.976;2022-09-12T09:54:14;101448.47;;;21.66;67.57
66887;BME280;53798;51.680;5.976;2022-09-12T09:56:46;101447.00;;;21.75;67.47
66887;BME280;53798;51.680;5.976;2022-09-12T10:01:51;101440.69;;;21.89;65.57
66887;BME280;53798;51.680;5.976;2022-09-12T10:04:22;101442.09;;;21.95;64.06
66887;BME280;53798;51.680;5.976;2022-09-12T10:06:59;101431.13;;;21.98;64.61
66887;BME280;53798;51.680;5.976;2022-09-12T10:09:31;101434.16;;;22.06;64.84
66887;BME280;53798;51.680;5.976;2022-09-12T10:12:27;101423.84;;;22.13;64.19
66887;BME280;53798;51.680;5.976;2022-09-12T10:20:00;101428.56;;;22.48;64.30
66887;BME280;53798;51.680;5.976;2022-09-12T10:22:49;101423.28;;;22.59;62.97
66887;BME280;53798;51.680;5.976;2022-09-12T10:25:18;101419.06;;;22.68;63.50
66887;BME280;53798;51.680;5.976;2022-09-12T10:27:56;101415.94;;;22.74;62.35
66887;BME280;53798;51.680;5.976;2022-09-12T10:30:26;101408.16;;;22.83;62.37
66887;BME280;53798;51.680;5.976;2022-09-12T10:33:13;101409.19;;;22.93;60.74
66887;BME280;53798;51.680;5.976;2022-09-12T10:35:47;101403.47;;;22.98;61.98
66887;BME280;53798;51.680;5.976;2022-09-12T10:38:25;101397.75;;;23.02;60.89
66887;BME280;53798;51.680;5.976;2022-09-12T10:40:59;101397.31;;;23.08;61.02
66887;BME280;53798;51.680;5.976;2022-09-12T10:46:19;101387.31;;;23.35;60.55
66887;BME280;53798;51.680;5.976;2022-09-12T10:49:30;101389.41;;;23.42;59.92
66887;BME280;53798;51.680;5.976;2022-09-12T10:52:36;101377.09;;;23.51;59.79
66887;BME280;53798;51.680;5.976;2022-09-12T10:55:07;101375.63;;;23.58;59.61
66887;BME280;53798;51.680;5.976;2022-09-12T11:00:56;101378.25;;;23.83;58.75
66887;BME280;53798;51.680;5.976;2022-09-12T11:03:55;101364.19;;;23.91;57.40
66887;BME280;53798;51.680;5.976;2022-09-12T11:12:59;101366.56;;;24.29;56.01
66887;BME280;53798;51.680;5.976;2022-09-12T11:16:07;101356.16;;;24.36;55.36
66887;BME280;53798;51.680;5.976;2022-09-12T11:21:47;101347.53;;;24.54;53.32
66887;BME280;53798;51.680;5.976;2022-09-12T11:30:36;101333.91;;;24.78;53.82
66887;BME280;53798;51.680;5.976;2022-09-12T11:33:23;101328.59;;;24.88;52.09
66887;BME280;53798;51.680;5.976;2022-09-12T11:35:56;101330.19;;;24.90;51.22
66887;BME280;53798;51.680;5.976;2022-09-12T11:41:54;101324.28;;;24.96;50.20
66887;BME280;53798;51.680;5.976;2022-09-12T11:44:35;101324.38;;;25.06;50.80
66887;BME280;53798;51.680;5.976;2022-09-12T11:47:10;101327.72;;;25.20;51.60
66887;BME280;53798;51.680;5.976;2022-09-12T11:49:45;101327.66;;;25.31;49.32
66887;BME280;53798;51.680;5.976;2022-09-12T11:52:21;101323.56;;;25.37;49.17
66887;BME280;53798;51.680;5.976;2022-09-12T11:55:03;101325.06;;;25.41;48.70
66887;BME280;53798;51.680;5.976;2022-09-12T11:57:40;101321.59;;;25.39;48.56
66887;BME280;53798;51.680;5.976;2022-09-12T12:00:36;101320.88;;;25.37;49.73
66887;BME280;53798;51.680;5.976;2022-09-12T12:03:21;101321.00;;;25.47;48.84
66887;BME280;53798;51.680;5.976;2022-09-12T12:06:03;101329.13;;;25.56;49.30
66887;BME280;53798;51.680;5.976;2022-09-12T12:08:39;101329.44;;;25.63;49.00
66887;BME280;53798;51.680;5.976;2022-09-12T12:11:34;101329.78;;;25.70;47.12
66887;BME280;53798;51.680;5.976;2022-09-12T12:14:13;101324.81;;;25.75;48.26
66887;BME280;53798;51.680;5.976;2022-09-12T12:16:45;101334.81;;;25.84;48.00
66887;BME280;53798;51.680;5.976;2022-09-12T12:21:41;101331.91;;;25.97;47.65
66887;BME280;53798;51.680;5.976;2022-09-12T12:24:18;101331.09;;;26.07;47.72
66887;BME280;53798;51.680;5.976;2022-09-12T12:27:03;101334.56;;;26.18;44.96
66887;BME280;53798;51.680;5.976;2022-09-12T12:29:48;101324.88;;;26.16;46.23
66887;BME280;53798;51.680;5.976;2022-09-12T12:34:43;101314.50;;;26.21;44.28
66887;BME280;53798;51.680;5.976;2022-09-12T12:52:48;101301.31;;;26.28;44.59
66887;BME280;53798;51.680;5.976;2022-09-12T12:55:22;101295.22;;;26.35;44.19
66887;BME280;53798;51.680;5.976;2022-09-12T12:57:54;101287.84;;;26.38;43.70
66887;BME280;53798;51.680;5.976;2022-09-12T13:00:37;101282.13;;;26.41;43.37
66887;BME280;53798;51.680;5.976;2022-09-12T13:05:50;101272.50;;;26.48;43.00
66887;BME280;53798;51.680;5.976;2022-09-12T13:08:45;101278.19;;;26.55;43.28
66887;BME280;53798;51.680;5.976;2022-09-12T13:11:43;101275.31;;;26.66;42.76
66887;BME280;53798;51.680;5.976;2022-09-12T13:17:28;101264.81;;;26.73;41.91
66887;BME280;53798;51.680;5.976;2022-09-12T13:20:47;101265.53;;;26.65;42.03
66887;BME280;53798;51.680;5.976;2022-09-12T13:23:38;101256.41;;;26.66;41.74
66887;BME280;53798;51.680;5.976;2022-09-12T13:26:24;101246.47;;;26.66;41.41
66887;BME280;53798;51.680;5.976;2022-09-12T13:29:21;101255.41;;;26.67;41.85
66887;BME280;53798;51.680;5.976;2022-09-12T13:31:57;101250.28;;;26.74;42.23
66887;BME280;53798;51.680;5.976;2022-09-12T13:34:44;101240.22;;;26.86;42.51
66887;BME280;53798;51.680;5.976;2022-09-12T13:37:41;101234.22;;;26.92;41.96
66887;BME280;53798;51.680;5.976;2022-09-12T13:43:51;101229.66;;;26.92;41.55
66887;BME280;53798;51.680;5.976;2022-09-12T13:46:38;101238.09;;;26.89;41.04
66887;BME280;53798;51.680;5.976;2022-09-12T13:52:01;101231.69;;;26.80;41.41
66887;BME280;53798;51.680;5.976;2022-09-12T13:54:34;101231.25;;;26.75;41.13
66887;BME280;53798;51.680;5.976;2022-09-12T13:57:37;101219.41;;;26.76;41.63
66887;BME280;53798;51.680;5.976;2022-09-12T14:00:25;101212.47;;;26.84;42.07
66887;BME280;53798;51.680;5.976;2022-09-12T14:03:00;101205.31;;;26.92;41.71
66887;BME280;53798;51.680;5.976;2022-09-12T14:05:56;101210.03;;;26.90;42.30
66887;BME280;53798;51.680;5.976;2022-09-12T14:08:23;101203.47;;;26.93;41.57
66887;BME280;53798;51.680;5.976;2022-09-12T14:10:51;101207.47;;;26.89;41.16
66887;BME280;53798;51.680;5.976;2022-09-12T14:13:37;101206.47;;;26.90;42.26
66887;BME280;53798;51.680;5.976;2022-09-12T14:16:05;101199.34;;;26.89;41.73
66887;BME280;53798;51.680;5.976;2022-09-12T14:18:37;101193.22;;;26.77;41.94
66887;BME280;53798;51.680;5.976;2022-09-12T14:21:32;101191.94;;;26.71;41.83
66887;BME280;53798;51.680;5.976;2022-09-12T14:24:04;101195.94;;;26.77;42.43
66887;BME280;53798;51.680;5.976;2022-09-12T14:26:35;101189.69;;;26.86;41.94
66887;BME280;53798;51.680;5.976;2022-09-12T14:29:07;101176.28;;;26.94;41.68
66887;BME280;53798;51.680;5.976;2022-09-12T14:31:37;101179.16;;;26.93;41.79
66887;BME280;53798;51.680;5.976;2022-09-12T14:34:16;101174.28;;;26.87;42.19
66887;BME280;53798;51.680;5.976;2022-09-12T14:36:49;101174.44;;;26.85;42.15
66887;BME280;53798;51.680;5.976;2022-09-12T14:39:32;101165.94;;;26.80;42.26
66887;BME280;53798;51.680;5.976;2022-09-12T14:42:30;101169.47;;;26.80;41.74
66887;BME280;53798;51.680;5.976;2022-09-12T14:45:02;101168.06;;;26.86;41.99
66887;BME280;53798;51.680;5.976;2022-09-12T14:47:42;101170.59;;;26.97;41.26
66887;BME280;53798;51.680;5.976;2022-09-12T14:50:20;101173.56;;;27.04;41.93
66887;BME280;53798;51.680;5.976;2022-09-12T14:53:03;101177.66;;;27.08;41.69
66887;BME280;53798;51.680;5.976;2022-09-12T14:55:33;101175.81;;;27.09;41.27
66887;BME280;53798;51.680;5.976;2022-09-12T14:58:28;101177.53;;;27.10;41.00
66887;BME280;53798;51.680;5.976;2022-09-12T15:06:29;101157.94;;;26.88;41.24
66887;BME280;53798;51.680;5.976;2022-09-12T15:09:01;101149.13;;;26.86;42.04
66887;BME280;53798;51.680;5.976;2022-09-12T15:11:31;101150.13;;;26.85;42.04
66887;BME280;53798;51.680;5.976;2022-09-12T15:14:05;101140.88;;;26.78;41.97
66887;BME280;53798;51.680;5.976;2022-09-12T15:16:41;101138.16;;;26.68;41.66
66887;BME280;53798;51.680;5.976;2022-09-12T15:19:08;101131.06;;;26.57;41.47
66887;BME280;53798;51.680;5.976;2022-09-12T15:21:36;101134.09;;;26.44;41.98
66887;BME280;53798;51.680;5.976;2022-09-12T15:24:03;101134.78;;;26.37;42.64
66887;BME280;53798;51.680;5.976;2022-09-12T15:26:30;101134.50;;;26.30;42.53
66887;BME280;53798;51.680;5.976;2022-09-12T15:28:57;101129.09;;;26.20;42.70
66887;BME280;53798;51.680;5.976;2022-09-12T15:31:27;101134.94;;;26.25;42.58
66887;BME280;53798;51.680;5.976;2022-09-12T15:33:59;101114.44;;;26.32;42.84